Time;durP1;ratioP1;P1;durP2;ratioP2;P2;SDS_P1;SDS_P2;PMS_P1;PMS_P2;Temp;Humidity;BMP_temperature;BMP_pressure;BME280_temperature;BME280_humidity;BME280_pressure;Samples;Min_cycle;Max_cycle;Signal;HPM_P1;HPM_P2
2023/04/17 14:01:31;;;;;;;2.37;1.40;;;14.60;99.90;;;;;;5127346;27;1929442;-83
2023/04/17 14:03:59;;;;;;;1.80;1.30;;;15.40;99.90;;;;;;5170247;27;20378;-83
2023/04/17 14:06:26;;;;;;;1.60;1.23;;;13.60;99.90;;;;;;5152702;27;20934;-83
2023/04/17 14:08:53;;;;;;;1.00;0.90;;;14.80;99.90;;;;;;5164268;27;20383;-83
2023/04/17 14:11:18;;;;;;;0.90;0.80;;;14.60;99.90;;;;;;5155191;27;20395;-87
2023/04/17 14:13:44;;;;;;;1.00;0.70;;;13.80;86.70;;;;;;5137451;27;20405;-84
2023/04/17 14:16:17;;;;;;;0.60;0.60;;;14.50;96.00;;;;;;5135157;27;20435;-81
2023/04/17 14:18:46;;;;;;;1.20;1.10;;;14.00;98.30;;;;;;5161328;27;20404;-81
2023/04/17 14:21:11;;;;;;;0.98;0.90;;;16.60;59.60;;;;;;5151579;27;20395;-82
2023/04/17 14:23:37;;;;;;;1.30;1.00;;;14.60;90.40;;;;;;5138766;28;20482;-82
2023/04/17 14:26:06;;;;;;;3.20;1.10;;;14.50;85.90;;;;;;5143029;28;20758;-82
2023/04/17 14:28:32;;;;;;;0.70;0.70;;;15.00;50.30;;;;;;5179812;22;20370;-82
2023/04/17 14:30:57;;;;;;;0.80;0.80;;;14.90;53.00;;;;;;5063306;28;20472;-82
2023/04/17 14:33:29;;;;;;;0.93;0.93;;;14.30;52.60;;;;;;5089073;28;20454;-83
2023/04/17 14:35:58;;;;;;;0.77;0.77;;;15.50;59.70;;;;;;5071377;28;20398;-82
2023/04/17 14:38:24;;;;;;;1.40;0.73;;;14.50;56.40;;;;;;5072323;28;20466;-83
2023/04/17 14:40:50;;;;;;;1.20;0.80;;;14.90;54.60;;;;;;5081187;28;20399;-83
2023/04/17 14:43:18;;;;;;;0.80;0.80;;;16.10;48.10;;;;;;5086617;28;20387;-83
2023/04/17 14:45:44;;;;;;;0.70;0.70;;;17.80;36.00;;;;;;5090188;28;20892;-84
2023/04/17 14:48:10;;;;;;;0.80;0.80;;;17.20;24.40;;;;;;5090205;28;20383;-84
2023/04/17 14:50:36;;;;;;;1.10;1.00;;;17.40;21.10;;;;;;5087796;28;20405;-84
2023/04/17 14:53:03;;;;;;;0.90;0.80;;;17.80;29.70;;;;;;5091175;28;20421;-82
2023/04/17 14:55:29;;;;;;;0.80;0.80;;;18.30;23.00;;;;;;5077491;28;20391;-82
2023/04/17 14:57:56;;;;;;;0.90;0.90;;;18.20;20.40;;;;;;5090170;28;20791;-86
2023/04/17 15:00:22;;;;;;;0.80;0.80;;;17.70;23.00;;;;;;5071687;28;20936;-84
2023/04/17 15:02:48;;;;;;;1.08;1.00;;;18.10;19.50;;;;;;5072993;28;20406;-86
2023/04/17 15:05:18;;;;;;;1.30;1.00;;;17.70;16.30;;;;;;5074018;28;20391;-86
2023/04/17 15:07:50;;;;;;;0.80;0.80;;;16.90;19.90;;;;;;5077974;28;20900;-84
2023/04/17 15:10:21;;;;;;;1.20;1.10;;;17.20;20.90;;;;;;5070197;28;20383;-85
2023/04/17 15:12:47;;;;;;;1.00;0.90;;;17.70;14.70;;;;;;5063639;28;20384;-87
2023/04/17 15:15:12;;;;;;;1.00;1.00;;;18.20;14.30;;;;;;5075311;28;20397;-87
2023/04/17 15:17:38;;;;;;;0.90;0.90;;;16.70;11.70;;;;;;5057257;28;20384;-85
2023/04/17 15:20:04;;;;;;;1.00;0.80;;;16.80;20.30;;;;;;5075023;28;20429;-81
2023/04/17 15:22:31;;;;;;;1.10;1.00;;;16.80;18.30;;;;;;5088049;28;20376;-82
2023/04/17 15:24:56;;;;;;;1.52;0.95;;;17.10;22.70;;;;;;5080203;28;20403;-81
2023/04/17 15:27:22;;;;;;;0.90;0.90;;;17.10;26.80;;;;;;5092226;28;20396;-86
2023/04/17 15:29:47;;;;;;;1.00;0.90;;;17.10;19.70;;;;;;5063798;28;20400;-82
2023/04/17 15:32:13;;;;;;;1.10;1.00;;;17.20;16.80;;;;;;5081041;28;20392;-81
2023/04/17 15:34:39;;;;;;;1.10;1.00;;;16.50;19.50;;;;;;5080109;28;20386;-80
2023/04/17 15:37:06;;;;;;;1.00;0.90;;;16.50;23.60;;;;;;5061914;28;20449;-81
2023/04/17 15:39:36;;;;;;;2.03;1.65;;;15.40;25.70;;;;;;5061891;28;20450;-82
2023/04/17 15:42:02;;;;;;;1.38;0.93;;;15.90;29.90;;;;;;5079890;28;20400;-82
2023/04/17 15:44:28;;;;;;;0.93;0.90;;;15.50;38.80;;;;;;5062014;28;20396;-82
2023/04/17 15:46:53;;;;;;;1.00;0.90;;;14.70;53.20;;;;;;5061714;28;20383;-82
2023/04/17 15:49:19;;;;;;;1.00;0.90;;;14.40;51.50;;;;;;5062664;28;20461;-82
2023/04/17 15:51:45;;;;;;;1.10;0.82;;;15.00;47.90;;;;;;5062235;28;20387;-82
2023/04/17 15:54:10;;;;;;;1.10;1.00;;;15.70;50.40;;;;;;5062437;28;20386;-82
2023/04/17 15:56:36;;;;;;;1.50;1.00;;;14.10;56.60;;;;;;5084086;28;20412;-81
2023/04/17 15:59:02;;;;;;;1.20;1.10;;;14.10;58.70;;;;;;5079008;28;20727;-82
2023/04/17 16:01:28;;;;;;;0.80;0.80;;;14.10;56.60;;;;;;5069944;28;20497;-83
2023/04/17 16:03:54;;;;;;;1.35;1.20;;;13.80;72.80;;;;;;5078426;28;20410;-82
2023/04/17 16:06:19;;;;;;;0.90;0.90;;;13.70;70.30;;;;;;5080895;28;20383;-82
2023/04/17 16:08:45;;;;;;;1.00;0.90;;;14.20;91.00;;;;;;5062409;28;20394;-82
2023/04/17 16:11:11;;;;;;;1.20;1.10;;;14.40;67.50;;;;;;5062596;28;20746;-83
2023/04/17 16:13:37;;;;;;;0.87;0.80;;;14.30;59.50;;;;;;5080266;28;20386;-84
2023/04/17 16:16:03;;;;;;;2.13;1.10;;;14.60;62.50;;;;;;5061311;28;20379;-81
2023/04/17 16:18:28;;;;;;;1.73;1.30;;;14.70;62.70;;;;;;5062447;28;20474;-82
2023/04/17 16:20:54;;;;;;;1.20;1.10;;;15.00;75.20;;;;;;5061563;28;20404;-81
2023/04/17 16:23:19;;;;;;;1.40;1.30;;;14.90;63.20;;;;;;5078888;28;20384;-81
2023/04/17 16:25:45;;;;;;;1.52;1.15;;;15.60;64.30;;;;;;5062794;28;20379;-82
2023/04/17 16:28:10;;;;;;;2.10;1.40;;;15.00;68.50;;;;;;5060338;28;20423;-82
2023/04/17 16:30:36;;;;;;;1.30;1.20;;;15.10;61.30;;;;;;5062313;28;20427;-82
2023/04/17 16:33:01;;;;;;;1.40;1.30;;;15.00;45.20;;;;;;5077367;28;20417;-82
2023/04/17 16:35:28;;;;;;;1.60;1.40;;;15.30;53.70;;;;;;5077824;28;20415;-81
2023/04/17 16:37:54;;;;;;;1.30;1.20;;;14.50;63.10;;;;;;5061389;28;20385;-83
2023/04/17 16:40:20;;;;;;;1.63;1.40;;;14.40;65.30;;;;;;5079142;28;20404;-82
2023/04/17 16:42:46;;;;;;;1.67;1.37;;;14.00;93.60;;;;;;5080229;28;20427;-81
2023/04/17 16:45:11;;;;;;;1.40;1.30;;;13.60;99.90;;;;;;5077455;28;20422;-81
2023/04/17 16:47:40;;;;;;;1.60;1.50;;;15.50;99.90;;;;;;5076334;28;20412;-82
2023/04/17 16:50:06;;;;;;;1.73;1.60;;;13.60;99.90;;;;;;5079640;28;20459;-82
2023/04/17 16:52:32;;;;;;;2.10;1.60;;;14.10;96.10;;;;;;5079148;28;20861;-82
2023/04/17 16:54:58;;;;;;;1.60;1.50;;;14.50;78.10;;;;;;5088176;28;20433;-82
2023/04/17 16:57:23;;;;;;;1.80;1.50;;;14.30;63.30;;;;;;5071635;28;20451;-83
2023/04/17 16:59:49;;;;;;;1.57;1.47;;;13.90;87.90;;;;;;5087779;28;20449;-83
2023/04/17 17:02:14;;;;;;;1.98;1.52;;;13.30;99.90;;;;;;5087152;28;20387;-82
2023/04/17 17:04:40;;;;;;;2.27;1.70;;;12.90;99.90;;;;;;5085320;28;20380;-82
2023/04/17 17:07:06;;;;;;;1.60;1.50;;;12.60;99.90;;;;;;5082767;28;20388;-82
2023/04/17 17:09:37;;;;;;;1.98;1.77;;;12.20;99.90;;;;;;5078382;28;20390;-83
2023/04/17 17:12:02;;;;;;;2.30;1.90;;;12.00;99.90;;;;;;5076387;28;20388;-82
2023/04/17 17:14:28;;;;;;;2.25;1.98;;;12.10;99.90;;;;;;5076470;28;20426;-82
2023/04/17 17:16:54;;;;;;;2.03;1.70;;;10.30;99.90;;;;;;5075791;28;20445;-82
2023/04/17 17:19:19;;;;;;;1.70;1.60;;;11.70;99.90;;;;;;5076166;28;20394;-81
2023/04/17 17:21:45;;;;;;;2.50;1.40;;;11.10;99.90;;;;;;5057643;28;20888;-82
2023/04/17 17:24:10;;;;;;;1.50;1.40;;;11.70;99.90;;;;;;5075986;28;20453;-82
2023/04/17 17:26:36;;;;;;;1.85;1.75;;;11.70;99.90;;;;;;5075467;28;20386;-82
2023/04/17 17:29:01;;;;;;;1.90;1.57;;;11.60;99.90;;;;;;5075712;28;20536;-82
2023/04/17 17:31:27;;;;;;;2.43;1.60;;;12.50;99.90;;;;;;5075366;28;20753;-82
2023/04/17 17:33:54;;;;;;;1.88;1.60;;;11.60;99.90;;;;;;5075721;28;20885;-82
2023/04/17 17:36:22;;;;;;;1.40;1.30;;;11.50;99.90;;;;;;5076009;28;20920;-83
2023/04/17 17:38:54;;;;;;;2.20;1.40;;;11.50;99.90;;;;;;5075790;28;20889;-82
2023/04/17 17:41:20;;;;;;;1.50;1.30;;;11.60;99.90;;;;;;5076504;28;20448;-82
2023/04/17 17:43:46;;;;;;;2.20;1.33;;;11.30;99.90;;;;;;5076886;28;20479;-82
2023/04/17 17:46:11;;;;;;;1.60;1.50;;;11.30;99.90;;;;;;5057451;28;20470;-82
2023/04/17 17:48:37;;;;;;;1.67;1.43;;;11.20;99.90;;;;;;5076123;28;20388;-82
2023/04/17 17:51:02;;;;;;;1.40;1.30;;;11.10;99.90;;;;;;5076122;28;20390;-82
2023/04/17 17:53:28;;;;;;;1.30;1.20;;;11.20;99.90;;;;;;5076274;28;20741;-83
2023/04/17 17:55:54;;;;;;;1.10;1.00;;;10.90;99.90;;;;;;5057701;28;20806;-83
2023/04/17 17:58:21;;;;;;;1.42;1.20;;;10.90;99.90;;;;;;5075343;28;20415;-82
2023/04/17 18:01:07;;;;;;;1.30;1.20;;;10.80;99.90;;;;;;5058147;28;20510;-83
2023/04/17 18:03:43;;;;;;;1.40;1.30;;;10.10;99.90;;;;;;5073926;28;20438;-82
2023/04/17 18:06:09;;;;;;;1.20;1.10;;;11.10;99.90;;;;;;5075754;28;20601;-82
2023/04/17 18:08:35;;;;;;;1.70;1.10;;;10.90;99.90;;;;;;5057513;28;20436;-82
2023/04/17 18:11:01;;;;;;;1.67;1.58;;;10.90;99.90;;;;;;5056855;28;20812;-83
2023/04/17 18:13:26;;;;;;;1.37;1.20;;;10.90;99.90;;;;;;5057418;28;20396;-83
2023/04/17 18:15:52;;;;;;;2.60;1.10;;;10.80;99.90;;;;;;5057113;28;20403;-82
2023/04/17 18:18:17;;;;;;;1.20;1.10;;;10.80;99.90;;;;;;5056225;28;20399;-83
2023/04/17 18:20:43;;;;;;;1.00;0.90;;;10.70;99.90;;;;;;5075690;28;20402;-86
2023/04/17 18:23:09;;;;;;;1.00;0.90;;;10.50;99.90;;;;;;5052562;28;20399;-86
2023/04/17 18:25:34;;;;;;;1.40;1.30;;;10.70;99.90;;;;;;5053797;28;20384;-85
2023/04/17 18:28:01;;;;;;;1.40;1.30;;;11.30;99.90;;;;;;5074351;28;20387;-84
2023/04/17 18:30:28;;;;;;;1.38;1.27;;;10.30;99.90;;;;;;5058624;28;20408;-84
2023/04/17 18:32:53;;;;;;;1.27;1.17;;;10.60;99.90;;;;;;5069834;28;20395;-83
2023/04/17 18:35:22;;;;;;;1.30;1.20;;;10.60;99.90;;;;;;5066433;28;20403;-85
2023/04/17 18:37:47;;;;;;;1.60;1.33;;;11.00;99.90;;;;;;5074685;28;21051;-85
2023/04/17 18:40:13;;;;;;;2.17;1.20;;;;;;;;;;5074875;28;20432;-83
2023/04/17 18:42:39;;;;;;;1.80;1.30;;;;;;;;;;5054451;28;20388;-85
2023/04/17 18:45:05;;;;;;;1.88;1.50;;;10.60;99.90;;;;;;5056568;28;20848;-82
2023/04/17 18:47:32;;;;;;;1.30;1.20;;;;;;;;;;5058947;28;20397;-86
2023/04/17 18:49:58;;;;;;;1.40;1.30;;;;;;;;;;5060116;28;20495;-85
2023/04/17 18:52:24;;;;;;;1.67;1.40;;;;;;;;;;5077498;28;20379;-88
2023/04/17 18:54:50;;;;;;;1.38;1.27;;;;;;;;;;5060131;28;20383;-84
2023/04/17 18:57:19;;;;;;;1.70;1.60;;;;;;;;;;5079749;28;20399;-84
2023/04/17 18:59:45;;;;;;;1.50;1.40;;;;;;;;;;5062816;28;20404;-83
2023/04/17 19:02:11;;;;;;;2.00;1.30;;;;;;;;;;5060812;28;20399;-85
2023/04/17 19:04:37;;;;;;;1.10;1.00;;;;;;;;;;5080771;28;20379;-86
2023/04/17 19:07:03;;;;;;;1.27;1.17;;;;;;;;;;5077555;28;20459;-85
2023/04/17 19:09:29;;;;;;;1.03;0.97;;;;;;;;;;5056197;28;20405;-86
2023/04/17 19:11:58;;;;;;;1.20;1.10;;;10.30;99.90;;;;;;5042425;28;20439;-85
2023/04/17 19:14:39;;;;;;;1.40;1.25;;;;;;;;;;5075528;28;20396;-87
2023/04/17 19:17:18;;;;;;;1.85;1.75;;;;;;;;;;5044996;28;20406;-86
2023/04/17 19:20:14;;;;;;;1.60;1.40;;;10.10;99.90;;;;;;5063481;28;20411;-85
2023/04/17 19:23:39;;;;;;;;;;;;;;;;;;;;;
2023/04/17 20:05:24;;;;;;;;;;;;;;;;;;;;;
2023/04/17 20:07:53;;;;;;;2.33;2.13;;;9.90;99.90;;;;;;5004611;28;20487;-86
2023/04/17 20:10:32;;;;;;;;;;;;;;;;;;;;;
2023/04/17 20:13:35;;;;;;;;;;;;;;;;;;;;;
2023/04/17 20:27:12;;;;;;;2.22;2.03;;;9.40;99.90;;;;;;5114486;28;20406;-87
2023/04/17 20:30:41;;;;;;;1.98;1.80;;;10.20;99.90;;;;;;5088705;28;20399;-84
2023/04/17 20:33:10;;;;;;;2.90;2.00;;;9.50;99.90;;;;;;4965508;28;20440;-86
2023/04/17 20:35:50;;;;;;;2.00;1.90;;;10.50;99.90;;;;;;5076026;28;20376;-88
2023/04/17 20:41:08;;;;;;;1.60;1.50;;;10.20;99.90;;;;;;5129174;22;20418;-85
2023/04/17 20:43:33;;;;;;;2.30;2.00;;;9.50;99.90;;;;;;5115941;28;20476;-86
2023/04/17 20:45:59;;;;;;;2.30;2.10;;;9.30;99.90;;;;;;5086164;28;20464;-86
2023/04/17 20:48:25;;;;;;;2.67;1.90;;;9.30;99.90;;;;;;5088312;28;20445;-86
2023/04/17 20:50:50;;;;;;;2.17;1.97;;;9.40;99.90;;;;;;5077266;28;20810;-85
2023/04/17 20:53:16;;;;;;;2.53;2.20;;;9.30;99.90;;;;;;5106339;28;20408;-84
2023/04/17 20:55:42;;;;;;;2.00;1.90;;;9.20;99.90;;;;;;5084231;28;20378;-85
2023/04/17 20:58:08;;;;;;;2.60;2.40;;;9.20;99.90;;;;;;5082586;28;20386;-84
2023/04/17 21:00:33;;;;;;;2.60;2.40;;;9.20;99.90;;;;;;5083701;28;20456;-84
2023/04/17 21:02:59;;;;;;;2.78;2.58;;;9.10;99.90;;;;;;5084550;28;20407;-86
2023/04/17 21:05:25;;;;;;;2.30;2.10;;;9.20;99.90;;;;;;5067560;28;20924;-83
2023/04/17 21:07:51;;;;;;;2.50;2.30;;;9.10;99.90;;;;;;5088635;28;20384;-83
2023/04/17 21:10:18;;;;;;;2.10;1.90;;;9.00;99.90;;;;;;5063443;28;20391;-85
2023/04/17 21:12:44;;;;;;;2.42;2.22;;;9.10;99.90;;;;;;5076410;28;20441;-85
2023/04/17 21:15:10;;;;;;;2.53;2.33;;;9.10;99.90;;;;;;5078685;28;20388;-85
2023/04/17 21:17:35;;;;;;;2.33;2.13;;;9.10;99.90;;;;;;5081366;28;20916;-85
2023/04/17 21:20:11;;;;;;;2.50;2.30;;;9.10;99.90;;;;;;5200514;22;20967;-84
2023/04/17 21:22:37;;;;;;;2.45;2.25;;;9.20;99.90;;;;;;5099491;28;20390;-84
2023/04/17 21:25:02;;;;;;;2.70;2.30;;;9.20;99.90;;;;;;5092136;28;20386;-84
2023/04/17 21:27:28;;;;;;;2.40;2.20;;;9.00;99.90;;;;;;5091636;28;20414;-84
2023/04/17 21:29:53;;;;;;;2.80;2.60;;;8.50;99.90;;;;;;5084334;28;20814;-83
2023/04/17 21:32:19;;;;;;;2.60;2.40;;;8.90;99.90;;;;;;5103771;28;20469;-84
2023/04/17 21:34:45;;;;;;;2.50;2.30;;;9.00;99.90;;;;;;5065883;28;20468;-84
2023/04/17 21:37:10;;;;;;;2.50;2.17;;;8.90;99.90;;;;;;5073807;28;20382;-84
2023/04/17 21:39:35;;;;;;;2.77;2.50;;;8.90;99.90;;;;;;5074213;28;20378;-85
2023/04/17 21:42:01;;;;;;;2.40;2.20;;;8.90;99.90;;;;;;5065363;28;20786;-84
2023/04/17 21:44:27;;;;;;;2.75;2.25;;;8.90;99.90;;;;;;5096136;28;20378;-84
2023/04/17 21:46:52;;;;;;;2.20;2.00;;;8.80;99.90;;;;;;5093276;28;20781;-84
2023/04/17 21:49:18;;;;;;;2.60;2.40;;;8.80;99.90;;;;;;5117533;28;20463;-84
2023/04/17 21:51:44;;;;;;;2.42;2.00;;;8.70;99.90;;;;;;5104584;28;20881;-84
2023/04/17 21:54:09;;;;;;;2.50;2.20;;;8.70;99.90;;;;;;5105239;28;20806;-84
2023/04/17 21:56:35;;;;;;;2.20;1.90;;;8.60;99.90;;;;;;5111878;28;20392;-84
2023/04/17 21:59:01;;;;;;;2.37;2.17;;;8.70;99.90;;;;;;5106671;28;20441;-84
2023/04/17 22:01:27;;;;;;;2.20;2.10;;;8.60;99.90;;;;;;5082200;28;20436;-84
2023/04/17 22:03:52;;;;;;;2.47;2.27;;;8.60;99.90;;;;;;5090562;28;20380;-84
2023/04/17 22:06:18;;;;;;;2.30;2.10;;;8.60;99.90;;;;;;5117544;28;20792;-85
2023/04/17 22:08:44;;;;;;;2.40;2.20;;;8.60;99.90;;;;;;5097727;28;20784;-85
2023/04/17 22:11:09;;;;;;;3.70;2.40;;;8.70;99.90;;;;;;5103734;28;20421;-85
2023/04/17 22:13:35;;;;;;;2.70;2.50;;;8.70;99.90;;;;;;5101446;28;20431;-84
2023/04/17 22:16:01;;;;;;;2.50;2.30;;;8.70;99.90;;;;;;5109921;28;20387;-84
2023/04/17 22:18:26;;;;;;;2.53;2.33;;;8.70;99.90;;;;;;5097985;28;20382;-83
2023/04/17 22:20:52;;;;;;;2.90;2.70;;;8.70;99.90;;;;;;5090494;28;20955;-84
2023/04/17 22:23:17;;;;;;;2.70;2.50;;;8.60;99.90;;;;;;5089279;28;20451;-84
2023/04/17 22:25:43;;;;;;;4.13;2.80;;;8.60;99.90;;;;;;5071858;28;20618;-84
2023/04/17 22:28:08;;;;;;;3.43;3.00;;;8.50;99.90;;;;;;5086801;28;20378;-85
2023/04/17 22:30:34;;;;;;;3.30;3.00;;;8.60;99.90;;;;;;5090630;28;20419;-85
2023/04/17 22:33:00;;;;;;;3.13;2.83;;;8.50;99.90;;;;;;5098180;28;20394;-84
2023/04/17 22:35:25;;;;;;;3.20;2.90;;;8.60;99.90;;;;;;5078550;28;20395;-85
2023/04/17 22:37:51;;;;;;;3.40;2.95;;;8.60;99.90;;;;;;5095545;28;20427;-84
2023/04/17 22:40:16;;;;;;;3.47;3.17;;;8.70;99.90;;;;;;5094873;28;20417;-85
2023/04/17 22:42:42;;;;;;;2.77;2.57;;;8.70;99.90;;;;;;5091784;28;20376;-85
2023/04/17 22:45:08;;;;;;;2.70;2.50;;;8.70;99.90;;;;;;5073910;28;20377;-85
2023/04/17 22:47:33;;;;;;;3.23;2.50;;;8.80;99.90;;;;;;5092154;28;20448;-84
2023/04/17 22:49:58;;;;;;;2.78;2.58;;;8.70;99.90;;;;;;5102154;28;20374;-85
2023/04/17 22:52:24;;;;;;;2.73;2.53;;;8.80;99.90;;;;;;5100912;28;20386;-84
2023/04/17 22:54:50;;;;;;;3.10;2.80;;;9.00;99.90;;;;;;5083558;28;20424;-83
2023/04/17 22:57:15;;;;;;;2.80;2.60;;;9.00;99.90;;;;;;5100838;28;20455;-84
2023/04/17 22:59:41;;;;;;;2.90;2.70;;;9.00;99.90;;;;;;5064715;28;20430;-84
2023/04/17 23:02:06;;;;;;;3.00;2.60;;;8.90;99.90;;;;;;5062780;28;20396;-85
2023/04/17 23:04:32;;;;;;;3.60;2.43;;;8.90;99.90;;;;;;5080712;28;20410;-85
2023/04/17 23:06:57;;;;;;;3.57;2.60;;;8.90;99.90;;;;;;5062957;28;20415;-84
2023/04/17 23:09:23;;;;;;;3.10;2.83;;;8.90;99.90;;;;;;5062492;28;20533;-84
2023/04/17 23:11:48;;;;;;;2.80;2.60;;;9.00;99.90;;;;;;5062087;28;20807;-84
2023/04/17 23:14:14;;;;;;;4.50;2.80;;;9.00;99.90;;;;;;5062302;28;20411;-84
2023/04/17 23:16:39;;;;;;;2.83;2.60;;;9.00;99.90;;;;;;5079756;28;20399;-84
2023/04/17 23:19:05;;;;;;;3.65;3.00;;;8.90;99.90;;;;;;5079479;28;20463;-84
2023/04/17 23:21:30;;;;;;;3.45;3.00;;;8.90;99.90;;;;;;5061622;28;20769;-83
2023/04/17 23:23:56;;;;;;;3.10;2.80;;;8.80;99.90;;;;;;5079150;28;20898;-85
2023/04/17 23:26:21;;;;;;;3.77;2.90;;;8.80;99.90;;;;;;5079000;28;20411;-84
2023/04/17 23:28:47;;;;;;;2.80;2.60;;;8.70;99.90;;;;;;5061049;28;20745;-84
2023/04/17 23:31:12;;;;;;;3.38;3.08;;;8.70;99.90;;;;;;5079732;28;20383;-84
2023/04/17 23:33:38;;;;;;;2.90;2.70;;;8.70;99.90;;;;;;5060294;28;20411;-84
2023/04/17 23:36:04;;;;;;;5.20;3.07;;;8.60;99.90;;;;;;5061055;28;20403;-84
2023/04/17 23:38:29;;;;;;;3.10;2.90;;;8.70;99.90;;;;;;5061339;28;20753;-84
2023/04/17 23:40:55;;;;;;;3.90;3.50;;;8.70;99.90;;;;;;5061112;28;20789;-83
2023/04/17 23:43:20;;;;;;;3.00;2.80;;;8.70;99.90;;;;;;5083043;28;20392;-84
2023/04/17 23:45:46;;;;;;;3.90;3.50;;;8.80;99.90;;;;;;5089672;28;20647;-83
2023/04/17 23:48:11;;;;;;;3.80;3.50;;;8.70;99.90;;;;;;5083027;28;20470;-84
2023/04/17 23:50:37;;;;;;;3.50;3.20;;;8.90;99.90;;;;;;5062376;28;20765;-85
2023/04/17 23:53:02;;;;;;;3.50;2.90;;;9.00;99.90;;;;;;5061983;28;20406;-84
2023/04/17 23:55:28;;;;;;;3.30;3.00;;;8.90;99.90;;;;;;5062438;28;20388;-85
2023/04/17 23:57:55;;;;;;;3.00;2.70;;;8.90;99.90;;;;;;5064760;28;20433;-83
